WMT350 LROP-LOWW
Flight info
| Callsign | WMT350 |
|---|---|
| Flight time | N/A |
| Altitude | 38000 |
| Route | POLUN1K POLUN DCT DIRER DCT LAKIK DCT OBUTI OBUTI2W |
| Aircraft | A20N/M-SDE2E3FGHIRWXY/LB1 |
Departure
| Time | 2026-05-06 18:26 |
|---|---|
| Airport | Bucharest Henri Coandă International Airport (LROP) |
Arrival
| Time | N/A |
|---|---|
| Airport | Vienna International Airport (LOWW) |
| Time | Latitude | Longitude | Altitude | Speed | Heading |
|---|---|---|---|---|---|
| 2026-05-06 18:00 | 44.57107 | 26.07947 | 322 ft | 0 kts | 174° |
| 2026-05-06 18:16 | 44.57116 | 26.07945 | 321 ft | 1 kts | 174° |
| 2026-05-06 18:16 | 44.57128 | 26.07944 | 321 ft | 2 kts | 174° |
| 2026-05-06 18:16 | 44.57143 | 26.07941 | 319 ft | 2 kts | 174° |
| 2026-05-06 18:16 | 44.57159 | 26.07938 | 319 ft | 2 kts | 169° |
| 2026-05-06 18:17 | 44.57173 | 26.07931 | 319 ft | 2 kts | 136° |
| 2026-05-06 18:17 | 44.57179 | 26.07912 | 319 ft | 1 kts | 82° |
| 2026-05-06 18:20 | 44.57179 | 26.07916 | 319 ft | 2 kts | 79° |
| 2026-05-06 18:20 | 44.57183 | 26.07956 | 319 ft | 7 kts | 83° |
| 2026-05-06 18:20 | 44.57191 | 26.08061 | 322 ft | 14 kts | 84° |
| 2026-05-06 18:20 | 44.57204 | 26.08215 | 321 ft | 16 kts | 84° |
| 2026-05-06 18:21 | 44.57224 | 26.08375 | 319 ft | 18 kts | 82° |
| 2026-05-06 18:21 | 44.57264 | 26.08494 | 321 ft | 14 kts | 5° |
| 2026-05-06 18:21 | 44.57368 | 26.08483 | 320 ft | 16 kts | 354° |
| 2026-05-06 18:21 | 44.57489 | 26.08465 | 322 ft | 17 kts | 354° |
| 2026-05-06 18:22 | 44.57509 | 26.08462 | 322 ft | 0 kts | 354° |
| 2026-05-06 18:24 | 44.57516 | 26.08461 | 322 ft | 3 kts | 354° |
| 2026-05-06 18:24 | 44.57554 | 26.08456 | 323 ft | 8 kts | 354° |
| 2026-05-06 18:24 | 44.57624 | 26.08449 | 324 ft | 12 kts | 5° |
| 2026-05-06 18:25 | 44.57670 | 26.08545 | 324 ft | 15 kts | 82° |
| 2026-05-06 18:25 | 44.57692 | 26.08818 | 321 ft | 57 kts | 84° |
| 2026-05-06 18:25 | 44.57757 | 26.09683 | 319 ft | 118 kts | 84° |
| 2026-05-06 18:25 | 44.57862 | 26.11029 | 447 ft | 149 kts | 84° |
| 2026-05-06 18:26 | 44.57990 | 26.12493 | 916 ft | 155 kts | 84° |
| 2026-05-06 18:26 | 44.58125 | 26.14125 | 1198 ft | 179 kts | 86° |
| 2026-05-06 18:26 | 44.58230 | 26.15781 | 1523 ft | 154 kts | 88° |
| 2026-05-06 18:26 | 44.58321 | 26.17168 | 1679 ft | 144 kts | 89° |
| 2026-05-06 18:27 | 44.58414 | 26.18646 | 1783 ft | 160 kts | 88° |
| 2026-05-06 18:27 | 44.58524 | 26.20307 | 2134 ft | 185 kts | 87° |
| 2026-05-06 18:27 | 44.58662 | 26.22217 | 2680 ft | 208 kts | 86° |
| 2026-05-06 18:27 | 44.58629 | 26.24325 | 3193 ft | 229 kts | 108° |
| 2026-05-06 18:28 | 44.57771 | 26.26262 | 3836 ft | 241 kts | 140° |
| 2026-05-06 18:28 | 44.56270 | 26.27313 | 4707 ft | 248 kts | 169° |
| 2026-05-06 18:28 | 44.54521 | 26.27192 | 5401 ft | 263 kts | 198° |
| 2026-05-06 18:28 | 44.52922 | 26.25839 | 6101 ft | 277 kts | 227° |
| 2026-05-06 18:29 | 44.51945 | 26.23531 | 7077 ft | 278 kts | 254° |
| 2026-05-06 18:29 | 44.51417 | 26.20898 | 8057 ft | 282 kts | 256° |
| 2026-05-06 18:29 | 44.50902 | 26.18266 | 9047 ft | 286 kts | 256° |
| 2026-05-06 18:29 | 44.50365 | 26.15605 | 10012 ft | 291 kts | 255° |
| 2026-05-06 18:30 | 44.49663 | 26.12818 | 10648 ft | 309 kts | 251° |
| 2026-05-06 18:30 | 44.48828 | 26.09915 | 11020 ft | 333 kts | 249° |
| 2026-05-06 18:30 | 44.47926 | 26.06852 | 11592 ft | 346 kts | 249° |
| 2026-05-06 18:30 | 44.47011 | 26.03709 | 12493 ft | 350 kts | 249° |
| 2026-05-06 18:31 | 44.46098 | 26.00528 | 13384 ft | 354 kts | 249° |
| 2026-05-06 18:31 | 44.45183 | 25.97303 | 14194 ft | 359 kts | 249° |
| 2026-05-06 18:31 | 44.44261 | 25.94043 | 14973 ft | 363 kts | 249° |
| 2026-05-06 18:31 | 44.43343 | 25.90789 | 15733 ft | 366 kts | 249° |
| 2026-05-06 18:32 | 44.42401 | 25.87457 | 16509 ft | 370 kts | 249° |
| 2026-05-06 18:32 | 44.41452 | 25.84102 | 17258 ft | 374 kts | 249° |
| 2026-05-06 18:32 | 44.40485 | 25.80690 | 17989 ft | 379 kts | 249° |
| 2026-05-06 18:32 | 44.39508 | 25.77247 | 18673 ft | 383 kts | 249° |
| 2026-05-06 18:33 | 44.38521 | 25.73777 | 19339 ft | 386 kts | 249° |
| 2026-05-06 18:33 | 44.37524 | 25.70273 | 19974 ft | 390 kts | 249° |
| 2026-05-06 18:33 | 44.36515 | 25.66737 | 20619 ft | 393 kts | 249° |
| 2026-05-06 18:33 | 44.35498 | 25.63178 | 21250 ft | 397 kts | 250° |
| 2026-05-06 18:34 | 44.34467 | 25.59575 | 21890 ft | 401 kts | 250° |
| 2026-05-06 18:34 | 44.33442 | 25.55996 | 22495 ft | 404 kts | 250° |
| 2026-05-06 18:34 | 44.32393 | 25.52338 | 23117 ft | 408 kts | 250° |
| 2026-05-06 18:34 | 44.31330 | 25.48636 | 23699 ft | 412 kts | 250° |
| 2026-05-06 18:35 | 44.30261 | 25.44918 | 24247 ft | 414 kts | 250° |
| 2026-05-06 18:35 | 44.29187 | 25.41188 | 24804 ft | 415 kts | 250° |
| 2026-05-06 18:35 | 44.28116 | 25.37476 | 25321 ft | 418 kts | 251° |
| 2026-05-06 18:35 | 44.27018 | 25.33675 | 25829 ft | 420 kts | 251° |
| 2026-05-06 18:36 | 44.25922 | 25.29883 | 26336 ft | 422 kts | 251° |
| 2026-05-06 18:36 | 44.24914 | 25.26034 | 26809 ft | 422 kts | 258° |
| 2026-05-06 18:36 | 44.24490 | 25.22062 | 27289 ft | 419 kts | 271° |
| 2026-05-06 18:36 | 44.24716 | 25.18036 | 27752 ft | 416 kts | 283° |
| 2026-05-06 18:37 | 44.25486 | 25.14146 | 28193 ft | 417 kts | 289° |
| 2026-05-06 18:37 | 44.26331 | 25.10263 | 28647 ft | 419 kts | 289° |
| 2026-05-06 18:37 | 44.27175 | 25.06364 | 29067 ft | 421 kts | 289° |
| 2026-05-06 18:37 | 44.28019 | 25.02445 | 29476 ft | 423 kts | 289° |
| 2026-05-06 18:38 | 44.28866 | 24.98499 | 29878 ft | 425 kts | 289° |
| 2026-05-06 18:38 | 44.29714 | 24.94537 | 30251 ft | 427 kts | 289° |
| 2026-05-06 18:38 | 44.30564 | 24.90552 | 30603 ft | 429 kts | 289° |
| 2026-05-06 18:38 | 44.31406 | 24.86600 | 30947 ft | 431 kts | 289° |
| 2026-05-06 18:39 | 44.32259 | 24.82581 | 31340 ft | 431 kts | 289° |
| 2026-05-06 18:39 | 44.33107 | 24.78577 | 31824 ft | 430 kts | 289° |
| 2026-05-06 18:39 | 44.33953 | 24.74576 | 32307 ft | 428 kts | 289° |
| 2026-05-06 18:40 | 44.35595 | 24.66790 | 33225 ft | 425 kts | 289° |
| 2026-05-06 18:40 | 44.36453 | 24.62711 | 33695 ft | 423 kts | 289° |
| 2026-05-06 18:40 | 44.37279 | 24.58774 | 34121 ft | 421 kts | 289° |
| 2026-05-06 18:40 | 44.38102 | 24.54849 | 34458 ft | 420 kts | 289° |
| 2026-05-06 18:41 | 44.38923 | 24.50929 | 34779 ft | 420 kts | 288° |
| 2026-05-06 18:41 | 44.39730 | 24.47066 | 35099 ft | 419 kts | 288° |
| 2026-05-06 18:41 | 44.40545 | 24.43156 | 35413 ft | 419 kts | 288° |
| 2026-05-06 18:41 | 44.41357 | 24.39253 | 35722 ft | 418 kts | 288° |
| 2026-05-06 18:42 | 44.42169 | 24.35347 | 36024 ft | 418 kts | 288° |
| 2026-05-06 18:42 | 44.42526 | 24.33621 | 36158 ft | 417 kts | 288° |
| 2026-05-06 18:42 | 44.43335 | 24.29719 | 36456 ft | 416 kts | 288° |
| 2026-05-06 18:42 | 44.44127 | 24.25884 | 36743 ft | 416 kts | 288° |
| 2026-05-06 18:43 | 44.44928 | 24.22004 | 37032 ft | 415 kts | 288° |
| 2026-05-06 18:43 | 44.45724 | 24.18139 | 37254 ft | 416 kts | 288° |
| 2026-05-06 18:43 | 44.46558 | 24.14092 | 35925 ft | 449 kts | 288° |
| 2026-05-06 18:43 | 44.47423 | 24.09891 | 35655 ft | 445 kts | 288° |
| 2026-05-06 18:44 | 44.48270 | 24.05769 | 35308 ft | 437 kts | 288° |
| 2026-05-06 18:44 | 44.49096 | 24.01745 | 35905 ft | 421 kts | 288° |
| 2026-05-06 18:44 | 44.49911 | 23.97767 | 35745 ft | 431 kts | 288° |
| 2026-05-06 18:45 | 44.51573 | 23.89660 | 35823 ft | 436 kts | 287° |
| 2026-05-06 18:45 | 44.52404 | 23.85598 | 36211 ft | 432 kts | 287° |
| 2026-05-06 18:45 | 44.53226 | 23.81573 | 36531 ft | 429 kts | 287° |
| 2026-05-06 18:45 | 44.54045 | 23.77553 | 36680 ft | 430 kts | 287° |
| 2026-05-06 18:46 | 44.54862 | 23.73542 | 36972 ft | 428 kts | 287° |
| 2026-05-06 18:46 | 44.55687 | 23.69488 | 36244 ft | 434 kts | 287° |
| 2026-05-06 18:46 | 44.56493 | 23.65547 | 37266 ft | 411 kts | 287° |
| 2026-05-06 18:46 | 44.57232 | 23.61768 | 37775 ft | 406 kts | 286° |
| 2026-05-06 18:47 | 44.57962 | 23.57941 | 37952 ft | 407 kts | 286° |
| 2026-05-06 18:47 | 44.59451 | 23.50257 | 37969 ft | 408 kts | 286° |
| 2026-05-06 18:48 | 44.60965 | 23.42589 | 37967 ft | 408 kts | 286° |
| 2026-05-06 18:48 | 44.62480 | 23.34921 | 37967 ft | 407 kts | 286° |
| 2026-05-06 18:49 | 44.63979 | 23.27310 | 37969 ft | 407 kts | 286° |
| 2026-05-06 18:49 | 44.65480 | 23.19652 | 37966 ft | 407 kts | 286° |
| 2026-05-06 18:50 | 44.66979 | 23.11976 | 37967 ft | 407 kts | 285° |
| 2026-05-06 18:50 | 44.68470 | 23.04307 | 37964 ft | 407 kts | 285° |
| 2026-05-06 18:51 | 44.69957 | 22.96629 | 37966 ft | 407 kts | 285° |
| 2026-05-06 18:51 | 44.71429 | 22.89003 | 37965 ft | 407 kts | 285° |
| 2026-05-06 18:52 | 44.72905 | 22.81319 | 37964 ft | 407 kts | 285° |
| 2026-05-06 18:52 | 44.74377 | 22.73630 | 37970 ft | 408 kts | 285° |
| 2026-05-06 18:53 | 44.75848 | 22.65913 | 37971 ft | 408 kts | 285° |
| 2026-05-06 18:53 | 44.77312 | 22.58201 | 37978 ft | 408 kts | 285° |
| 2026-05-06 18:54 | 44.78765 | 22.50520 | 37981 ft | 409 kts | 284° |
| 2026-05-06 18:54 | 44.80223 | 22.42772 | 37988 ft | 409 kts | 284° |
| 2026-05-06 18:55 | 44.81678 | 22.35022 | 37992 ft | 409 kts | 284° |
| 2026-05-06 18:55 | 44.83129 | 22.27255 | 37986 ft | 410 kts | 284° |
| 2026-05-06 18:56 | 44.84564 | 22.19538 | 37987 ft | 410 kts | 284° |
| 2026-05-06 18:56 | 44.86007 | 22.11748 | 37982 ft | 411 kts | 284° |
| 2026-05-06 18:57 | 44.87447 | 22.03938 | 37985 ft | 412 kts | 284° |
| 2026-05-06 18:57 | 44.88883 | 21.96125 | 37983 ft | 412 kts | 284° |
| 2026-05-06 18:58 | 44.90305 | 21.88352 | 37976 ft | 413 kts | 283° |
| 2026-05-06 18:58 | 44.91733 | 21.80507 | 37972 ft | 413 kts | 283° |
| 2026-05-06 18:59 | 44.93157 | 21.72656 | 37970 ft | 413 kts | 283° |
| 2026-05-06 18:59 | 44.94577 | 21.64796 | 37956 ft | 413 kts | 283° |
| 2026-05-06 19:00 | 44.95993 | 21.56924 | 37945 ft | 413 kts | 283° |
| 2026-05-06 19:00 | 44.97403 | 21.49062 | 37933 ft | 413 kts | 283° |
| 2026-05-06 19:01 | 44.98803 | 21.41242 | 37921 ft | 413 kts | 283° |
| 2026-05-06 19:01 | 45.00316 | 21.33420 | 37918 ft | 413 kts | 284° |
| 2026-05-06 19:02 | 45.01914 | 21.25613 | 37914 ft | 413 kts | 284° |
| 2026-05-06 19:02 | 45.03491 | 21.17804 | 37912 ft | 413 kts | 284° |
| 2026-05-06 19:03 | 45.05036 | 21.10062 | 37915 ft | 413 kts | 284° |
| 2026-05-06 19:03 | 45.06584 | 21.02256 | 37916 ft | 413 kts | 283° |
| 2026-05-06 19:04 | 45.08129 | 20.94438 | 37925 ft | 413 kts | 283° |
| 2026-05-06 19:04 | 45.09672 | 20.86594 | 37926 ft | 413 kts | 283° |
| 2026-05-06 19:05 | 45.11209 | 20.78753 | 37928 ft | 414 kts | 283° |
| 2026-05-06 19:05 | 45.12733 | 20.70947 | 37927 ft | 414 kts | 283° |
| 2026-05-06 19:06 | 45.14263 | 20.63082 | 37924 ft | 415 kts | 283° |
| 2026-05-06 19:06 | 45.15791 | 20.55190 | 37927 ft | 415 kts | 283° |
| 2026-05-06 19:07 | 45.17315 | 20.47290 | 37926 ft | 416 kts | 283° |
| 2026-05-06 19:07 | 45.18824 | 20.39432 | 37924 ft | 416 kts | 282° |
| 2026-05-06 19:08 | 45.20340 | 20.31507 | 37926 ft | 416 kts | 282° |
| 2026-05-06 19:08 | 45.21850 | 20.23575 | 37929 ft | 417 kts | 282° |
| 2026-05-06 19:09 | 45.23356 | 20.15635 | 37927 ft | 417 kts | 282° |
| 2026-05-06 19:09 | 45.24849 | 20.07738 | 37933 ft | 417 kts | 282° |
| 2026-05-06 19:10 | 45.26343 | 19.99793 | 37929 ft | 417 kts | 282° |
| 2026-05-06 19:10 | 45.27833 | 19.91841 | 37924 ft | 417 kts | 282° |
| 2026-05-06 19:11 | 45.28987 | 19.85655 | 37924 ft | 417 kts | 282° |
| 2026-05-06 19:11 | 45.30467 | 19.77695 | 37926 ft | 416 kts | 282° |
| 2026-05-06 19:12 | 45.31929 | 19.69795 | 37927 ft | 416 kts | 282° |
| 2026-05-06 19:12 | 45.33397 | 19.61832 | 37923 ft | 416 kts | 282° |
| 2026-05-06 19:13 | 45.34857 | 19.53876 | 37924 ft | 416 kts | 282° |
| 2026-05-06 19:13 | 45.36313 | 19.45911 | 37924 ft | 416 kts | 282° |
| 2026-05-06 19:14 | 45.37761 | 19.37949 | 37921 ft | 416 kts | 282° |
| 2026-05-06 19:14 | 45.39194 | 19.30037 | 37921 ft | 416 kts | 282° |
| 2026-05-06 19:15 | 45.40632 | 19.22060 | 37922 ft | 416 kts | 282° |
| 2026-05-06 19:15 | 45.42063 | 19.14093 | 37921 ft | 416 kts | 282° |
| 2026-05-06 19:16 | 45.43491 | 19.06108 | 37917 ft | 416 kts | 282° |
| 2026-05-06 19:16 | 45.44902 | 18.98181 | 37916 ft | 416 kts | 282° |
| 2026-05-06 19:17 | 45.46313 | 18.90214 | 37917 ft | 415 kts | 281° |
| 2026-05-06 19:17 | 45.47720 | 18.82238 | 37918 ft | 415 kts | 281° |
| 2026-05-06 19:18 | 45.49121 | 18.74264 | 37923 ft | 415 kts | 281° |
| 2026-05-06 19:18 | 45.50506 | 18.66348 | 37920 ft | 414 kts | 281° |
| 2026-05-06 19:19 | 45.51892 | 18.58386 | 37932 ft | 413 kts | 281° |
| 2026-05-06 19:19 | 45.53269 | 18.50442 | 37931 ft | 413 kts | 281° |
| 2026-05-06 19:20 | 45.54640 | 18.42497 | 37937 ft | 412 kts | 281° |
| 2026-05-06 19:20 | 45.55993 | 18.34623 | 37937 ft | 411 kts | 281° |
| 2026-05-06 19:21 | 45.57348 | 18.26703 | 37941 ft | 411 kts | 281° |
| 2026-05-06 19:21 | 45.58696 | 18.18789 | 37937 ft | 410 kts | 281° |
| 2026-05-06 19:22 | 45.60309 | 18.10977 | 37930 ft | 412 kts | 289° |
| 2026-05-06 19:22 | 45.62906 | 18.03643 | 37931 ft | 416 kts | 298° |
| 2026-05-06 19:23 | 45.65967 | 17.96684 | 37925 ft | 416 kts | 298° |
| 2026-05-06 19:23 | 45.69029 | 17.89668 | 37925 ft | 416 kts | 298° |
| 2026-05-06 19:24 | 45.72093 | 17.82635 | 37926 ft | 417 kts | 298° |
| 2026-05-06 19:24 | 45.75158 | 17.75587 | 37928 ft | 417 kts | 298° |
| 2026-05-06 19:25 | 45.78200 | 17.68574 | 37937 ft | 417 kts | 298° |
| 2026-05-06 19:25 | 45.81260 | 17.61502 | 37935 ft | 418 kts | 298° |
| 2026-05-06 19:26 | 45.84322 | 17.54408 | 37936 ft | 419 kts | 298° |
| 2026-05-06 19:26 | 45.87384 | 17.47294 | 37940 ft | 419 kts | 298° |
| 2026-05-06 19:27 | 45.90444 | 17.40169 | 37940 ft | 420 kts | 297° |
| 2026-05-06 19:27 | 45.93482 | 17.33076 | 37939 ft | 420 kts | 297° |
| 2026-05-06 19:28 | 45.96538 | 17.25923 | 37939 ft | 420 kts | 297° |
| 2026-05-06 19:28 | 45.99593 | 17.18755 | 37933 ft | 420 kts | 297° |
| 2026-05-06 19:29 | 46.02645 | 17.11576 | 37932 ft | 421 kts | 297° |
| 2026-05-06 19:29 | 46.05691 | 17.04391 | 37931 ft | 421 kts | 297° |
| 2026-05-06 19:30 | 46.08713 | 16.97245 | 37928 ft | 421 kts | 297° |
| 2026-05-06 19:30 | 46.11753 | 16.90039 | 37919 ft | 420 kts | 297° |
| 2026-05-06 19:31 | 46.14784 | 16.82833 | 37912 ft | 420 kts | 297° |
| 2026-05-06 19:31 | 46.19319 | 16.72021 | 37911 ft | 420 kts | 296° |
| 2026-05-06 19:32 | 46.22306 | 16.64874 | 37904 ft | 419 kts | 296° |
| 2026-05-06 19:32 | 46.25322 | 16.57640 | 37903 ft | 419 kts | 296° |
| 2026-05-06 19:33 | 46.28325 | 16.50418 | 37895 ft | 419 kts | 296° |
| 2026-05-06 19:33 | 46.31320 | 16.43195 | 37890 ft | 419 kts | 296° |
| 2026-05-06 19:34 | 46.34328 | 16.36036 | 37883 ft | 421 kts | 300° |
| 2026-05-06 19:34 | 46.38473 | 16.29921 | 37876 ft | 434 kts | 320° |
| 2026-05-06 19:35 | 46.43965 | 16.26074 | 37871 ft | 447 kts | 339° |
| 2026-05-06 19:35 | 46.50197 | 16.25027 | 37620 ft | 457 kts | 359° |
| 2026-05-06 19:36 | 46.53367 | 16.25603 | 37025 ft | 462 kts | 8° |
| 2026-05-06 19:36 | 46.56467 | 16.26930 | 36307 ft | 468 kts | 18° |
| 2026-05-06 19:36 | 46.59373 | 16.28958 | 35566 ft | 473 kts | 28° |
| 2026-05-06 19:36 | 46.62082 | 16.31707 | 34830 ft | 477 kts | 38° |
| 2026-05-06 19:37 | 46.64463 | 16.35072 | 34112 ft | 480 kts | 48° |
| 2026-05-06 19:37 | 46.66457 | 16.38985 | 33313 ft | 481 kts | 58° |
| 2026-05-06 19:37 | 46.67996 | 16.43313 | 32477 ft | 482 kts | 68° |
| 2026-05-06 19:37 | 46.68745 | 16.46354 | 31915 ft | 483 kts | 75° |
| 2026-05-06 19:38 | 46.69565 | 16.52779 | 30762 ft | 483 kts | 88° |
| 2026-05-06 19:38 | 46.69546 | 16.57662 | 29975 ft | 481 kts | 98° |
| 2026-05-06 19:38 | 46.68978 | 16.62417 | 29293 ft | 472 kts | 108° |
| 2026-05-06 19:38 | 46.67924 | 16.66814 | 28700 ft | 462 kts | 118° |
| 2026-05-06 19:39 | 46.66407 | 16.70859 | 28070 ft | 451 kts | 128° |
| 2026-05-06 19:39 | 46.64487 | 16.74396 | 27463 ft | 441 kts | 138° |
| 2026-05-06 19:39 | 46.62231 | 16.77320 | 26959 ft | 428 kts | 148° |
| 2026-05-06 19:39 | 46.59722 | 16.79576 | 26381 ft | 420 kts | 158° |
| 2026-05-06 19:40 | 46.57037 | 16.81113 | 25799 ft | 411 kts | 168° |
| 2026-05-06 19:40 | 46.54260 | 16.81902 | 25209 ft | 402 kts | 178° |
| 2026-05-06 19:40 | 46.51489 | 16.81983 | 24613 ft | 395 kts | 187° |
| 2026-05-06 19:40 | 46.48811 | 16.81291 | 24049 ft | 388 kts | 200° |
| 2026-05-06 19:41 | 46.46384 | 16.79681 | 23470 ft | 382 kts | 214° |
| 2026-05-06 19:41 | 46.44364 | 16.77229 | 22796 ft | 378 kts | 228° |
| 2026-05-06 19:41 | 46.42886 | 16.74174 | 22168 ft | 375 kts | 242° |
| 2026-05-06 19:41 | 46.41979 | 16.70642 | 21554 ft | 374 kts | 255° |
| 2026-05-06 19:42 | 46.41716 | 16.66915 | 20935 ft | 376 kts | 269° |
| 2026-05-06 19:42 | 46.42114 | 16.63155 | 20328 ft | 378 kts | 283° |
| 2026-05-06 19:42 | 46.43156 | 16.59651 | 19737 ft | 381 kts | 297° |
| 2026-05-06 19:42 | 46.44795 | 16.56616 | 19169 ft | 385 kts | 312° |
| 2026-05-06 19:43 | 46.46938 | 16.54268 | 18600 ft | 390 kts | 327° |
| 2026-05-06 19:43 | 46.49435 | 16.52714 | 18121 ft | 389 kts | 336° |
| 2026-05-06 19:43 | 46.51960 | 16.51340 | 17929 ft | 389 kts | 335° |
| 2026-05-06 19:43 | 46.54469 | 16.49958 | 17887 ft | 392 kts | 335° |